Arapahoe, NC

2:41 PM EDT on July 30, 2015 (GMT -0400)
Arapahoe, NC | | Change Station
CLOSE
Current Station
Personal Weather Station
Location: South Arapahoe, NC
Elevation: 75 ft
Nearby Weather Stations

Elev 75 ft 35.01 °N, 76.82 °W | Updated 12 minutes ago

Partly Cloudy
Partly Cloudy
92.2 °F
Feels Like 110 °F
N
3.0
Wind Variable Wind from SSW
Gusts 5.0 mph

Today
High -- | Low -- °F
--% Chance of Precip.
Yesterday
High -- | Low -- °F
Precip. -- in
6:14 AM 8:11 PM
Waxing Gibbous, 99% visible
Pressure 29.93 in
Visibility 10.0 miles
Clouds Scattered Clouds 3200 ft
Scattered Clouds 10000 ft
Heat Index 110 °F
Dew Point 80 °F
Humidity 67%
Rainfall 0.00 in
Snow Depth Not available.
UV 9.0 out of 12
Pollen 3.40 out of 12
Air Quality Not available.
Flu Activity Not available.
METAR KNKT 301754Z 17012G17KT 10SM SCT032 SCT100 32/24 A2994 RMK AO2 SLP135 T03170239 10322 20267 58006 $

More Conditions Fewer Conditions

Pressure 29.93 in
Visibility 10.0 miles
Clouds Scattered Clouds 3200 ft
Scattered Clouds 10000 ft
Heat Index 110 °F
Dew Point 80 °F
Humidity 67%
Rainfall 0.00 in
Snow Depth Not available.
UV 9.0 out of 12
Pollen 3.40 out of 12
Air Quality Not available.
Flu Activity Not available.
METAR KNKT 301754Z 17012G17KT 10SM SCT032 SCT100 32/24 A2994 RMK AO2 SLP135 T03170239 10322 20267 58006 $

More Conditions Fewer Conditions

10-Day Weather Forecast

×

Almanac

Astronomy

Jul. 30, 2015 Rise Set
Actual Time
Civil Twilight
Nautical Twilight
Astronomical Twilight
Moon
Length of Visible Light
Length of Day
Tomorrow will be .
, % of the Moon is Illuminated

Today's Extremes

State Highs State Lows

Community

WunderPhotos

Upload Photos

1,842,476 photos uploaded!

WunderBlogs® & News

Nearby

Air Quality

  Air Quality AQ Index Pollutant
Not available.

Snow Depth

Station Depth Elevation

Earthquake Activity

City Distance Mag. Time & Date
Minimum magnitude displayed is 2.5.

Coastal Water Temperatures

Place Temperature

Stations

Nearby Weather Stations

Station Location Temp. Windchill Dew Point Humidity Wind Precip. Elev Updated Type